Aérodrome :
LOGIN :

S'inscrire | Disclaimer

   EN    FR    IT 

 










Légende :    VFR   VFR Marginal   IFR   IFR Intensif   IFR Très Intensif
Visi : 
Plafond : 
>= 8 km
>= 3000ft
5 à 8 km
1000 à 3000 ft
1500m à 5 km
500 à 1000 ft
800 à 1500m
200 à 500 ft
< 800m
< 200 ft
Symboles :   Orages  Brouillard  Fortes neiges  Fortes précipitations  Vent > 20 kt
SIGMETs :   Divers  Orages  Givrage  Turbulence  Onde Orograph.  Cendres Volcan.







- Altitude de l'aérodrome : 17 ft
- Code IATA : GRS


LIRS - Grosseto

DERNIER METAR :
  • 170055Z 07006KT 9999 SCT060 16/14 Q1016 RMK SCT VIS MIN 9999 WIND THR03 08004KT WIND THR21 09007KT BLU

METARs EXPIRÉS :
  • 162355Z 04003KT 9999 SCT040 SCT060 16/14 Q1016 RMK BKN VIS MIN 9999 WIND THR03 04001KT WIND THR21 06005KT BLU
  • 162255Z 04003KT 9999 FEW040 SCT060 17/15 Q1017 RMK SCT VIS MIN 9999 WIND THR03 07006KT WIND THR21 02002KT BLU

TAF TAF LIRS
Valide du 17 à 00h jusqu'au 17 à 09h UTC


162300Z 1700/1709 05006KT 7000 RA SCT025 BKN050
TEMPO 1700/1705 5000 RA BKN030
PROB30
TEMPO 1700/1703 SHRA FEW020CB
Pas de NOTAMs connus pour ce terrain.



MET'MAP, la Météo Aéronautique d'un coup d'oeil ! - Copyright ORBIFLY Décembre 2007 - Disclaimer

ORBIFLY MET'MAP TEAM :

Programmation & Développement : Alexandra Zaïnal
Conception & Développement : Baudouin d'Aumeries
Co-Programmation & Développement : Marc-Olivier Méhu
Soutien technique & logistique : Manuel Goepfert

Contact : metmap@orbifly.com




SOURCES & CREDITS :

   NOAA